Time;durP1;ratioP1;P1;durP2;ratioP2;P2;SDS_P1;SDS_P2;PMS_P1;PMS_P2;Temp;Humidity;BMP_temperature;BMP_pressure;BME280_temperature;BME280_humidity;BME280_pressure;Samples;Min_cycle;Max_cycle;Signal;HPM_P1;HPM_P2
2022/10/18 00:01:41;;;;;;;22.58;10.80;;;;;;;10.19;64.81;101547.44;5072895;28;20028;-69
2022/10/18 00:04:06;;;;;;;19.60;10.82;;;;;;;10.21;64.84;101542.91;5073656;28;20032;-71
2022/10/18 00:06:32;;;;;;;20.02;11.18;;;;;;;10.13;65.14;101549.69;5071121;28;20043;-67
2022/10/18 00:08:57;;;;;;;22.20;11.50;;;;;;;10.02;65.31;101529.34;5072223;28;20306;-68
2022/10/18 00:11:23;;;;;;;22.33;11.15;;;;;;;10.30;64.56;101537.88;5074546;28;20330;-67
2022/10/18 00:13:48;;;;;;;29.75;12.43;;;;;;;10.41;64.30;101541.41;5072849;28;20032;-68
2022/10/18 00:16:16;;;;;;;25.75;11.27;;;;;;;10.43;63.82;101539.50;5074961;28;20245;-72
2022/10/18 00:18:42;;;;;;;22.95;11.80;;;;;;;10.29;63.89;101530.88;5074625;28;20040;-68
2022/10/18 00:21:12;;;;;;;23.52;11.68;;;;;;;10.15;64.51;101529.25;5071168;28;20331;-72
2022/10/18 00:23:38;;;;;;;21.80;10.30;;;;;;;10.31;64.10;101527.16;5072543;28;20032;-69
2022/10/18 00:26:14;;;;;;;21.13;10.57;;;;;;;10.39;64.12;101527.41;5071729;28;20196;-68
2022/10/18 00:28:41;;;;;;;20.95;10.57;;;;;;;10.47;63.24;101521.56;5074575;28;20273;-71
2022/10/18 00:31:16;;;;;;;18.63;10.48;;;;;;;10.28;63.21;101519.44;5068666;28;20043;-73
2022/10/18 00:33:43;;;;;;;23.55;10.18;;;;;;;10.27;63.49;101520.41;5074577;28;20032;-73
2022/10/18 00:36:10;;;;;;;24.45;10.80;;;;;;;10.11;64.08;101504.81;5072950;28;20033;-73
2022/10/18 00:38:36;;;;;;;25.67;10.98;;;;;;;10.16;63.85;101509.75;5073643;28;20267;-70
2022/10/18 00:41:03;;;;;;;23.88;10.93;;;;;;;10.02;64.58;101512.59;5070800;28;20040;-68
2022/10/18 00:43:28;;;;;;;25.73;10.23;;;;;;;9.99;65.16;101515.47;5072315;28;20226;-68
2022/10/18 00:45:53;;;;;;;21.10;10.20;;;;;;;9.73;65.48;101525.38;5073630;28;20067;-68
2022/10/18 00:48:19;;;;;;;23.00;10.77;;;;;;;9.89;65.02;101523.28;5071089;28;20032;-73
2022/10/18 00:50:47;;;;;;;19.58;9.95;;;;;;;9.97;64.11;101525.34;5072241;28;20025;-73
2022/10/18 00:53:17;;;;;;;19.83;9.75;;;;;;;10.06;63.80;101527.31;5068616;28;20332;-69
2022/10/18 00:55:43;;;;;;;14.07;9.27;;;;;;;9.88;64.52;101527.72;5073023;28;20112;-73
2022/10/18 00:58:12;;;;;;;17.15;9.38;;;;;;;9.72;64.86;101523.69;5072236;28;20100;-68
2022/10/18 01:00:39;;;;;;;21.25;10.00;;;;;;;9.76;65.13;101518.03;5074079;28;20108;-71
2022/10/18 01:03:06;;;;;;;20.70;10.13;;;;;;;9.77;65.01;101517.09;5070963;28;20031;-68
2022/10/18 01:05:32;;;;;;;19.30;10.55;;;;;;;9.99;63.43;101512.84;5074019;28;20240;-71
2022/10/18 01:08:22;;;;;;;20.13;10.35;;;;;;;10.03;63.16;101515.13;5074015;28;20069;-71
2022/10/18 01:11:02;;;;;;;24.25;10.13;;;;;;;10.05;63.25;101507.09;5072585;28;20056;-71
2022/10/18 01:13:40;;;;;;;21.85;9.70;;;;;;;10.03;63.41;101501.91;5075096;28;20258;-69
2022/10/18 01:16:30;;;;;;;21.90;9.68;;;;;;;10.04;62.92;101500.09;5071583;28;20028;-72
2022/10/18 01:19:37;;;;;;;24.45;9.73;;;;;;;10.01;63.28;101509.13;5075164;28;20154;-68
2022/10/18 01:22:20;;;;;;;20.10;9.90;;;;;;;9.90;63.66;101498.50;5070608;28;20032;-72
2022/10/18 01:24:57;;;;;;;21.33;10.68;;;;;;;9.99;63.06;101499.59;5074758;28;20023;-72
2022/10/18 01:27:43;;;;;;;20.67;9.93;;;;;;;10.01;62.82;101501.19;5071932;28;20033;-72
2022/10/18 01:30:39;;;;;;;24.00;10.45;;;;;;;10.05;63.08;101492.03;5077404;28;20037;-69
2022/10/18 01:33:24;;;;;;;20.48;10.80;;;;;;;9.90;63.41;101501.16;5078449;28;20028;-68
2022/10/18 01:36:19;;;;;;;25.27;11.45;;;;;;;9.82;63.27;101492.94;5075392;28;20338;-68
2022/10/18 01:38:47;;;;;;;24.08;10.57;;;;;;;9.48;64.23;101471.63;5074125;28;20057;-72
2022/10/18 01:41:15;;;;;;;20.30;11.10;;;;;;;9.47;64.55;101506.13;5072702;28;20242;-72
2022/10/18 01:43:42;;;;;;;24.30;10.52;;;;;;;9.54;64.04;101502.91;5081725;28;20028;-71
2022/10/18 01:46:10;;;;;;;21.42;10.40;;;;;;;9.63;63.71;101495.25;5084801;28;20028;-73
2022/10/18 01:48:39;;;;;;;23.48;10.35;;;;;;;9.70;62.91;101494.69;5089069;28;20028;-68
2022/10/18 01:51:04;;;;;;;25.83;10.52;;;;;;;9.65;63.34;101496.00;5084816;28;20284;-71
2022/10/18 01:53:32;;;;;;;23.45;11.20;;;;;;;9.57;63.54;101501.84;5084956;28;20035;-69
2022/10/18 01:56:12;;;;;;;19.63;9.98;;;;;;;9.49;63.65;101493.63;5085061;28;20046;-69
2022/10/18 01:58:53;;;;;;;19.58;10.48;;;;;;;9.38;63.68;101490.94;5084701;28;20051;-72
2022/10/18 02:01:26;;;;;;;20.80;10.57;;;;;;;9.15;64.77;101496.03;5084892;28;20206;-69
2022/10/18 02:03:56;;;;;;;21.43;10.73;;;;;;;9.31;63.82;101498.44;5085015;28;20328;-69
2022/10/18 02:06:28;;;;;;;21.98;10.38;;;;;;;9.41;63.51;101488.06;5083639;28;20035;-72
2022/10/18 02:09:08;;;;;;;19.02;9.40;;;;;;;9.40;63.46;101486.38;5084789;28;20028;-69
2022/10/18 02:11:37;;;;;;;22.75;10.05;;;;;;;9.37;63.76;101487.44;5084610;28;20041;-72
2022/10/18 02:14:07;;;;;;;16.15;8.90;;;;;;;9.37;63.39;101484.78;5084625;28;20048;-72
2022/10/18 02:16:52;;;;;;;17.35;9.52;;;;;;;9.32;63.22;101468.41;5084739;28;20024;-69
2022/10/18 02:19:27;;;;;;;21.48;9.50;;;;;;;9.26;63.58;101471.47;5087792;28;20082;-72
2022/10/18 02:21:54;;;;;;;18.42;9.90;;;;;;;9.23;64.01;101472.56;5084440;28;20036;-69
2022/10/18 02:24:25;;;;;;;20.35;10.05;;;;;;;9.22;64.12;101476.16;5084418;28;20310;-69
2022/10/18 02:26:50;;;;;;;28.23;10.63;;;;;;;9.35;62.90;101470.81;5084313;28;20033;-72
2022/10/18 02:29:16;;;;;;;18.92;9.63;;;;;;;9.38;62.86;101480.34;5084186;28;20036;-69
2022/10/18 02:31:48;;;;;;;27.83;9.93;;;;;;;9.16;63.36;101473.94;5084333;28;20032;-72
2022/10/18 02:34:42;;;;;;;18.02;9.90;;;;;;;9.07;64.32;101471.97;5084328;28;20214;-69
2022/10/18 02:37:07;;;;;;;21.02;10.02;;;;;;;8.95;64.31;101486.06;5078314;28;20257;-72
2022/10/18 02:39:35;;;;;;;19.75;9.80;;;;;;;8.98;64.75;101492.91;5075739;28;20082;-72
2022/10/18 02:42:06;;;;;;;21.60;9.77;;;;;;;9.02;64.36;101479.38;5076279;28;20028;-72
2022/10/18 02:44:36;;;;;;;18.13;9.60;;;;;;;9.23;63.39;101488.41;5078007;28;20040;-69
2022/10/18 02:47:04;;;;;;;21.65;10.25;;;;;;;9.31;63.30;101489.66;5078364;28;20066;-69
2022/10/18 02:49:30;;;;;;;16.58;9.70;;;;;;;9.15;63.69;101489.91;5077532;28;20329;-72
2022/10/18 02:51:55;;;;;;;28.10;10.77;;;;;;;9.20;62.41;101496.56;5077132;28;20032;-69
2022/10/18 02:54:21;;;;;;;21.67;10.43;;;;;;;9.17;62.62;101482.72;5074478;28;20588;-72
2022/10/18 02:56:47;;;;;;;23.55;10.30;;;;;;;9.14;61.87;101491.72;5075932;28;20051;-71
2022/10/18 02:59:12;;;;;;;21.27;9.45;;;;;;;8.95;62.24;101497.47;5075908;28;20036;-75
2022/10/18 03:01:38;;;;;;;23.77;9.82;;;;;;;8.90;62.12;101498.75;5073965;28;20021;-74
2022/10/18 03:04:04;;;;;;;24.23;10.68;;;;;;;8.79;62.68;101496.03;5075234;28;20070;-69
2022/10/18 03:06:30;;;;;;;21.38;9.32;;;;;;;8.72;62.74;101500.91;5077109;28;20325;-69
2022/10/18 03:08:56;;;;;;;16.35;9.40;;;;;;;8.67;63.41;101497.72;5074073;28;20114;-72
2022/10/18 03:11:21;;;;;;;17.25;9.07;;;;;;;8.67;63.33;101500.38;5076233;28;20036;-69
2022/10/18 03:13:49;;;;;;;21.15;10.25;;;;;;;8.59;63.77;101487.69;5078304;28;20070;-72
2022/10/18 03:16:14;;;;;;;24.13;9.45;;;;;;;8.47;63.19;101493.00;5078800;28;20260;-68
2022/10/18 03:18:40;;;;;;;18.88;10.13;;;;;;;8.33;63.95;101491.28;5073078;28;20086;-72
2022/10/18 03:21:06;;;;;;;20.70;10.02;;;;;;;8.39;64.15;101498.78;5077366;28;20356;-69
2022/10/18 03:23:32;;;;;;;23.08;10.27;;;;;;;8.30;64.97;101512.56;5075859;28;20397;-72
2022/10/18 03:25:58;;;;;;;27.45;10.13;;;;;;;8.37;64.97;101502.50;5068897;28;20315;-72
2022/10/18 03:28:23;;;;;;;20.77;10.35;;;;;;;8.51;65.15;101497.09;5068017;28;20073;-72
2022/10/18 03:30:49;;;;;;;23.83;10.07;;;;;;;8.50;65.36;101496.25;5067355;28;20136;-72
2022/10/18 03:33:14;;;;;;;20.17;10.43;;;;;;;8.49;65.46;101499.84;5073019;28;20328;-72
2022/10/18 03:35:40;;;;;;;18.58;9.88;;;;;;;8.68;64.21;101499.41;5073002;28;20033;-69
2022/10/18 03:38:05;;;;;;;19.25;10.20;;;;;;;8.72;63.89;101500.91;5067497;28;20082;-72
2022/10/18 03:40:31;;;;;;;20.70;10.00;;;;;;;8.76;63.81;101498.88;5065346;28;20028;-72
2022/10/18 03:42:56;;;;;;;20.67;10.05;;;;;;;8.82;63.22;101499.28;5068657;28;20036;-72
2022/10/18 03:45:21;;;;;;;19.83;10.60;;;;;;;8.78;63.84;101504.91;5065513;28;20106;-69
2022/10/18 03:47:47;;;;;;;18.98;10.18;;;;;;;8.82;63.46;101507.22;5068014;28;20068;-72
2022/10/18 03:50:12;;;;;;;17.85;10.20;;;;;;;8.89;63.21;101505.00;5069095;28;20084;-69
2022/10/18 03:52:38;;;;;;;24.13;10.45;;;;;;;8.81;63.48;101496.75;5068331;28;20029;-69
2022/10/18 03:55:04;;;;;;;22.17;11.18;;;;;;;8.81;63.25;101507.31;5067252;28;20044;-69
2022/10/18 03:57:29;;;;;;;20.98;10.43;;;;;;;8.78;63.34;101507.53;5067041;28;20451;-72
2022/10/18 03:59:55;;;;;;;15.90;10.20;;;;;;;8.79;63.27;101501.31;5066644;28;20033;-72
2022/10/18 04:02:20;;;;;;;25.85;10.07;;;;;;;8.78;63.51;101510.19;5068633;28;20107;-72
2022/10/18 04:04:45;;;;;;;21.67;10.30;;;;;;;8.69;63.67;101502.91;5066989;28;20044;-69
2022/10/18 04:07:11;;;;;;;18.67;10.05;;;;;;;8.66;64.40;101503.97;5074536;28;20398;-69
2022/10/18 04:09:36;;;;;;;22.20;10.07;;;;;;;8.64;63.95;101490.88;5067156;28;20088;-68
2022/10/18 04:12:02;;;;;;;25.77;12.38;;;;;;;8.84;63.35;101502.66;5069485;28;20196;-72
2022/10/18 04:14:27;;;;;;;31.40;13.88;;;;;;;8.89;63.02;101502.34;5083373;28;20226;-69
2022/10/18 04:16:53;;;;;;;23.75;10.18;;;;;;;8.95;62.96;101499.28;5082923;28;20070;-69
2022/10/18 04:19:18;;;;;;;21.05;9.88;;;;;;;8.92;62.90;101495.03;5083496;28;20032;-69
2022/10/18 04:21:43;;;;;;;19.88;9.07;;;;;;;8.90;62.61;101498.75;5083188;28;20322;-69
2022/10/18 04:24:09;;;;;;;20.55;9.52;;;;;;;8.93;62.87;101498.53;5082622;28;20028;-72
2022/10/18 04:26:34;;;;;;;25.70;8.30;;;;;;;8.64;63.27;101496.16;5082868;28;20059;-69
2022/10/18 04:29:00;;;;;;;20.67;9.07;;;;;;;8.69;63.03;101493.19;5082225;28;20032;-72
2022/10/18 04:31:25;;;;;;;24.83;9.60;;;;;;;8.62;64.15;101491.91;5082387;28;20087;-68
2022/10/18 04:33:51;;;;;;;26.40;10.95;;;;;;;8.63;64.39;101490.97;5083028;28;20032;-69
2022/10/18 04:36:16;;;;;;;22.50;10.32;;;;;;;8.74;64.09;101491.06;5082880;28;20032;-68
2022/10/18 04:38:41;;;;;;;41.25;27.30;;;;;;;8.76;63.76;101490.97;5082887;28;20048;-69
2022/10/18 04:41:07;;;;;;;31.38;15.75;;;;;;;8.82;63.44;101498.44;5082398;28;20358;-70
2022/10/18 04:43:32;;;;;;;27.00;9.68;;;;;;;8.71;63.76;101501.00;5082855;28;20024;-69
2022/10/18 04:45:58;;;;;;;20.92;8.35;;;;;;;8.68;63.34;101504.69;5082556;28;20239;-69
2022/10/18 04:48:23;;;;;;;17.73;8.55;;;;;;;8.66;63.94;101505.75;5082519;28;20108;-72
2022/10/18 04:50:49;;;;;;;21.58;8.80;;;;;;;8.77;63.05;101503.22;5082212;28;20036;-69
2022/10/18 04:53:16;;;;;;;26.65;8.75;;;;;;;8.85;62.89;101500.88;5073996;28;20032;-69
2022/10/18 04:55:48;;;;;;;23.30;8.80;;;;;;;8.86;63.16;101502.56;5080856;28;20025;-69
2022/10/18 04:58:14;;;;;;;24.13;9.70;;;;;;;8.88;63.25;101498.00;5082566;28;20037;-72
2022/10/18 05:00:41;;;;;;;30.30;9.80;;;;;;;8.96;62.43;101508.88;5082170;28;20059;-69
2022/10/18 05:03:07;;;;;;;26.30;10.18;;;;;;;8.83;62.58;101487.78;5082088;28;20028;-72
2022/10/18 05:05:32;;;;;;;18.35;9.02;;;;;;;8.90;62.96;101507.53;5082329;28;20032;-72
2022/10/18 05:07:57;;;;;;;19.35;10.27;;;;;;;8.88;63.37;101504.16;5082388;28;20459;-72
2022/10/18 05:10:23;;;;;;;22.17;9.93;;;;;;;8.87;63.08;101494.53;5082211;28;20104;-72
2022/10/18 05:12:48;;;;;;;22.02;9.85;;;;;;;9.03;63.06;101496.09;5082553;28;20100;-69
2022/10/18 05:15:14;;;;;;;23.50;9.88;;;;;;;9.15;62.56;101497.84;5082101;28;20091;-69
2022/10/18 05:17:39;;;;;;;31.20;11.10;;;;;;;9.23;62.57;101508.72;5082335;28;20032;-72
2022/10/18 05:20:05;;;;;;;26.77;12.23;;;;;;;9.18;62.75;101518.78;5082667;28;20213;-69
2022/10/18 05:22:30;;;;;;;30.73;13.07;;;;;;;9.18;62.86;101516.13;5082389;28;20028;-72
2022/10/18 05:24:56;;;;;;;29.38;12.60;;;;;;;9.32;62.32;101515.97;5082173;28;20044;-72
2022/10/18 05:27:21;;;;;;;27.92;13.23;;;;;;;9.35;62.67;101517.56;5082197;28;20089;-72
2022/10/18 05:29:47;;;;;;;31.92;12.90;;;;;;;9.50;62.08;101506.75;5081745;28;20074;-72
2022/10/18 05:32:12;;;;;;;26.15;11.07;;;;;;;9.26;62.92;101511.13;5082118;28;20099;-69
2022/10/18 05:34:38;;;;;;;20.80;12.02;;;;;;;9.28;63.10;101511.88;5082313;28;20348;-72
2022/10/18 05:37:03;;;;;;;31.25;12.93;;;;;;;9.45;62.80;101514.16;5081838;28;20028;-72
2022/10/18 05:39:28;;;;;;;30.42;12.90;;;;;;;9.23;63.51;101509.56;5081851;28;20036;-69
2022/10/18 05:41:54;;;;;;;34.05;15.10;;;;;;;9.18;63.90;101509.03;5082282;28;20086;-69
2022/10/18 05:44:20;;;;;;;23.33;12.23;;;;;;;9.16;64.01;101510.94;5082055;28;20111;-69
2022/10/18 05:46:45;;;;;;;23.17;10.73;;;;;;;9.25;63.98;101510.28;5082079;28;20040;-72
2022/10/18 05:49:12;;;;;;;20.75;9.80;;;;;;;9.28;64.09;101507.44;5071642;28;21764;-69
2022/10/18 05:51:38;;;;;;;20.63;10.27;;;;;;;9.57;63.68;101507.13;5076551;28;20032;-69
2022/10/18 05:54:03;;;;;;;19.92;10.52;;;;;;;9.75;63.40;101503.13;5081902;28;20074;-69
2022/10/18 05:56:29;;;;;;;24.63;10.90;;;;;;;10.23;62.04;101514.50;5081679;28;20341;-72
2022/10/18 05:58:54;;;;;;;24.75;9.57;;;;;;;10.28;62.16;101505.38;5080207;28;20028;-69
2022/10/18 06:01:20;;;;;;;18.63;11.93;;;;;;;10.58;61.07;101504.84;5081842;28;20043;-72
2022/10/18 06:03:46;;;;;;;24.38;11.15;;;;;;;10.63;60.76;101505.31;5081823;28;20191;-69
2022/10/18 06:06:13;;;;;;;22.50;10.32;;;;;;;10.71;60.97;101501.13;5081813;28;20032;-72
2022/10/18 06:08:40;;;;;;;24.98;10.70;;;;;;;10.94;60.96;101514.38;5081509;28;20036;-72
2022/10/18 06:11:14;;;;;;;24.60;9.95;;;;;;;11.16;60.02;101498.44;5081467;28;20087;-69
2022/10/18 06:13:44;;;;;;;22.73;10.40;;;;;;;11.27;60.09;101519.63;5081916;28;20294;-69
2022/10/18 06:16:12;;;;;;;20.85;9.38;;;;;;;11.23;60.76;101514.69;5083224;28;20060;-72
2022/10/18 06:18:38;;;;;;;24.83;9.98;;;;;;;11.37;60.17;101523.22;5085640;28;20032;-72
2022/10/18 06:21:03;;;;;;;17.08;8.77;;;;;;;11.42;60.72;101518.38;5085257;28;20089;-72
2022/10/18 06:23:29;;;;;;;20.63;8.65;;;;;;;11.83;59.00;101524.84;5085427;28;20293;-70
2022/10/18 06:25:59;;;;;;;23.25;10.25;;;;;;;11.94;60.02;101524.78;5084941;28;20034;-73
2022/10/18 06:28:25;;;;;;;27.35;9.77;;;;;;;12.28;58.41;101514.81;5085323;28;20025;-70
2022/10/18 06:30:50;;;;;;;22.35;8.32;;;;;;;12.53;57.95;101512.75;5084999;28;20150;-73
2022/10/18 06:33:16;;;;;;;15.20;9.65;;;;;;;12.71;57.52;101512.03;5085321;28;20088;-69
2022/10/18 06:35:41;;;;;;;18.63;8.20;;;;;;;12.50;57.98;101524.50;5085535;28;20217;-70
2022/10/18 06:38:06;;;;;;;14.82;8.10;;;;;;;12.21;59.70;101507.50;5085239;28;20333;-73
2022/10/18 06:40:36;;;;;;;17.90;8.20;;;;;;;12.13;60.24;101518.78;5085397;28;20083;-73
2022/10/18 06:43:05;;;;;;;23.45;10.73;;;;;;;12.35;60.13;101517.81;5084984;28;20028;-69
2022/10/18 06:45:55;;;;;;;22.52;10.18;;;;;;;12.73;60.69;101519.88;5085399;28;20056;-69
2022/10/18 06:48:22;;;;;;;14.50;7.72;;;;;;;13.03;59.77;101519.84;5085289;28;20055;-69
2022/10/18 06:50:58;;;;;;;21.33;8.50;;;;;;;13.22;60.05;101519.09;5084796;28;20036;-72
2022/10/18 06:53:25;;;;;;;12.55;7.60;;;;;;;13.31;59.19;101509.44;5084773;28;20048;-69
2022/10/18 06:55:51;;;;;;;14.20;8.40;;;;;;;13.57;58.62;101508.00;5084541;28;20304;-72
2022/10/18 06:58:16;;;;;;;22.30;8.20;;;;;;;13.52;58.71;101507.53;5084765;28;20028;-73
2022/10/18 07:00:43;;;;;;;14.60;7.82;;;;;;;13.84;58.17;101517.09;5085194;28;20192;-73
2022/10/18 07:03:08;;;;;;;24.65;8.60;;;;;;;13.94;57.44;101510.81;5084568;28;20289;-73
2022/10/18 07:05:33;;;;;;;17.30;8.32;;;;;;;14.04;57.14;101516.13;5084926;28;20091;-73
2022/10/18 07:07:59;;;;;;;22.58;9.82;;;;;;;14.46;56.33;101508.66;5077246;28;20029;-72
2022/10/18 07:10:24;;;;;;;24.00;8.80;;;;;;;14.59;56.04;101500.38;5065775;28;20406;-69
2022/10/18 07:12:50;;;;;;;17.33;8.88;;;;;;;14.16;56.87;101504.31;5068084;28;20033;-73
2022/10/18 07:15:16;;;;;;;17.13;7.88;;;;;;;14.02;57.86;101505.59;5075578;28;20052;-70
2022/10/18 07:17:45;;;;;;;16.58;7.65;;;;;;;14.16;57.16;101501.66;5065880;28;20087;-73
2022/10/18 07:20:11;;;;;;;14.32;8.38;;;;;;;14.30;56.97;101503.88;5068241;28;20047;-69
2022/10/18 07:22:37;;;;;;;14.77;6.85;;;;;;;14.47;57.00;101494.34;5065616;28;20092;-73
2022/10/18 07:25:04;;;;;;;15.68;8.15;;;;;;;14.54;55.90;101487.44;5066974;28;20049;-69
2022/10/18 07:27:30;;;;;;;14.50;6.43;;;;;;;14.57;54.65;101484.50;5065649;28;20048;-73
2022/10/18 07:29:55;;;;;;;15.02;7.40;;;;;;;14.72;54.54;101479.53;5065808;28;20378;-73
2022/10/18 07:32:20;;;;;;;14.57;7.57;;;;;;;14.65;54.85;101479.28;5066985;28;20310;-69
2022/10/18 07:34:46;;;;;;;15.20;7.10;;;;;;;14.86;54.38;101481.72;5068331;28;20040;-67
2022/10/18 07:37:11;;;;;;;13.90;8.60;;;;;;;14.69;53.90;101472.69;5064342;28;20096;-67
2022/10/18 07:39:37;;;;;;;13.30;7.03;;;;;;;14.78;53.97;101481.63;5068807;28;20071;-70
2022/10/18 07:42:02;;;;;;;13.50;7.25;;;;;;;14.96;53.83;101473.69;5064543;28;20389;-70
2022/10/18 07:44:28;;;;;;;11.10;6.60;;;;;;;15.11;52.69;101463.34;5067559;28;20029;-70
2022/10/18 07:46:53;;;;;;;18.00;7.13;;;;;;;15.28;52.52;101467.88;5066914;28;20100;-73
2022/10/18 07:49:18;;;;;;;17.38;8.23;;;;;;;15.26;52.18;101465.34;5069569;28;20210;-67
2022/10/18 07:51:44;;;;;;;12.20;6.15;;;;;;;15.29;52.71;101458.88;5065207;28;20107;-67
2022/10/18 07:54:09;;;;;;;12.88;6.32;;;;;;;15.43;52.27;101447.66;5066786;28;20096;-70
2022/10/18 07:56:34;;;;;;;13.45;6.95;;;;;;;15.60;51.20;101457.56;5065535;28;20340;-70
2022/10/18 07:59:00;;;;;;;12.05;6.57;;;;;;;15.84;50.93;101456.94;5067855;28;20107;-67
2022/10/18 08:01:25;;;;;;;13.85;7.07;;;;;;;16.00;50.88;101442.88;5063881;28;20036;-67
2022/10/18 08:03:52;;;;;;;14.02;7.43;;;;;;;16.03;50.74;101441.72;5067212;28;20032;-67
2022/10/18 08:06:19;;;;;;;14.27;7.45;;;;;;;16.13;49.89;101440.63;5068386;28;20291;-68
2022/10/18 08:08:45;;;;;;;20.10;7.15;;;;;;;16.27;49.87;101432.03;5066355;28;20338;-67
2022/10/18 08:11:14;;;;;;;15.15;7.65;;;;;;;16.10;50.10;101432.94;5067098;28;20044;-68
2022/10/18 08:13:39;;;;;;;15.80;7.05;;;;;;;16.34;49.46;101410.84;5067435;28;20028;-68
2022/10/18 08:16:07;;;;;;;15.75;8.10;;;;;;;16.33;49.29;101429.72;5070372;28;20379;-68
2022/10/18 08:18:34;;;;;;;16.33;8.82;;;;;;;16.29;49.61;101418.50;5064116;28;20040;-73
2022/10/18 08:21:00;;;;;;;15.35;8.05;;;;;;;16.28;49.23;101411.50;5069474;28;20097;-73
2022/10/18 08:23:26;;;;;;;15.85;7.97;;;;;;;16.22;49.70;101423.66;5063865;28;20025;-69
2022/10/18 08:25:51;;;;;;;14.55;7.00;;;;;;;16.41;50.13;101413.72;5068731;28;20184;-73
2022/10/18 08:28:16;;;;;;;17.83;7.65;;;;;;;16.21;50.07;101407.78;5065519;28;20037;-73
2022/10/18 08:30:42;;;;;;;15.88;7.78;;;;;;;16.47;50.12;101397.03;5074256;28;20104;-69
2022/10/18 08:33:08;;;;;;;17.35;7.15;;;;;;;16.65;49.41;101397.84;5065403;28;20058;-69
2022/10/18 08:35:33;;;;;;;16.20;7.90;;;;;;;17.00;49.38;101401.31;5064326;28;20097;-72
2022/10/18 08:37:59;;;;;;;13.88;8.45;;;;;;;17.14;47.28;101395.31;5066123;28;20029;-73
2022/10/18 08:40:27;;;;;;;16.88;7.30;;;;;;;17.35;47.99;101389.50;5063919;28;20029;-69
2022/10/18 08:43:21;;;;;;;16.40;7.28;;;;;;;17.43;47.76;101376.94;5066176;28;20029;-73
2022/10/18 08:45:49;;;;;;;23.23;7.75;;;;;;;17.11;48.89;101376.91;5067373;28;20032;-73
2022/10/18 08:48:22;;;;;;;12.05;7.38;;;;;;;17.33;48.80;101376.25;5064331;28;20028;-73
2022/10/18 08:50:49;;;;;;;15.40;8.15;;;;;;;17.23;48.73;101376.44;5066481;28;20033;-69
2022/10/18 08:53:30;;;;;;;16.55;7.45;;;;;;;17.13;48.65;101369.56;5065840;28;20348;-73
2022/10/18 08:56:13;;;;;;;13.75;7.38;;;;;;;17.15;49.12;101368.38;5066077;28;20055;-69
2022/10/18 08:58:41;;;;;;;12.48;7.25;;;;;;;17.04;48.84;101363.34;5078026;28;20028;-72
2022/10/18 09:01:25;;;;;;;14.23;6.60;;;;;;;17.25;48.38;101360.19;5082495;28;20031;-72
2022/10/18 09:04:15;;;;;;;14.10;6.65;;;;;;;17.17;48.56;101366.38;5082332;28;20101;-72
2022/10/18 09:07:11;;;;;;;15.40;7.32;;;;;;;17.04;49.03;101355.31;5075981;28;20131;-69
2022/10/18 09:09:45;;;;;;;13.73;6.25;;;;;;;17.04;49.23;101346.44;5082158;28;20071;-73
2022/10/18 09:12:51;;;;;;;11.63;6.38;;;;;;;17.07;50.25;101341.59;5081287;28;20357;-73
2022/10/18 09:15:29;;;;;;;21.52;6.30;;;;;;;17.14;49.73;101339.94;5077677;28;20037;-73
2022/10/18 09:18:25;;;;;;;18.13;5.85;;;;;;;17.21;49.85;101337.44;5082011;28;20079;-69
2022/10/18 09:20:58;;;;;;;14.50;6.22;;;;;;;17.31;49.74;101340.78;5082150;28;20063;-72
2022/10/18 09:23:40;;;;;;;15.73;6.78;;;;;;;17.63;48.93;101337.25;5082242;28;20031;-73
2022/10/18 09:26:14;;;;;;;14.98;6.65;;;;;;;17.62;49.01;101332.06;5080389;28;20208;-69
2022/10/18 09:29:06;;;;;;;12.10;6.07;;;;;;;17.58;48.89;101328.06;5082054;28;20016;-69
2022/10/18 09:31:51;;;;;;;19.45;8.48;;;;;;;17.59;48.21;101319.84;5082298;28;20032;-73
2022/10/18 09:34:41;;;;;;;12.55;6.32;;;;;;;17.56;48.07;101322.88;5079671;28;20020;-70
2022/10/18 09:37:18;;;;;;;13.20;7.10;;;;;;;17.72;47.99;101312.19;5082256;28;20029;-73
2022/10/18 09:39:45;;;;;;;13.88;5.90;;;;;;;17.65;48.32;101303.09;5082266;28;20360;-73
2022/10/18 09:42:25;;;;;;;12.48;6.53;;;;;;;17.62;48.28;101299.94;5082187;28;20051;-69
2022/10/18 09:44:55;;;;;;;11.38;6.53;;;;;;;17.51;48.64;101293.09;5082293;28;20044;-69
2022/10/18 09:47:27;;;;;;;18.52;8.80;;;;;;;17.60;48.69;101294.75;5082329;28;20095;-69
2022/10/18 09:49:58;;;;;;;18.75;6.10;;;;;;;17.43;49.20;101295.75;5083262;28;20195;-69
2022/10/18 09:52:36;;;;;;;14.02;7.00;;;;;;;17.60;47.69;101292.06;5085963;28;20036;-69
2022/10/18 09:55:14;;;;;;;14.82;6.35;;;;;;;17.56;48.00;101278.16;5086123;28;20265;-73
2022/10/18 09:57:45;;;;;;;13.32;6.18;;;;;;;17.68;47.51;101275.16;5085889;28;20040;-73
2022/10/18 10:00:18;;;;;;;18.70;6.68;;;;;;;17.77;48.58;101263.44;5086247;28;20032;-73
2022/10/18 10:02:43;;;;;;;14.13;5.25;;;;;;;17.81;48.17;101264.78;5085729;28;20036;-69
2022/10/18 10:05:12;;;;;;;17.58;6.60;;;;;;;17.85;46.66;101255.38;5086079;28;20044;-69
2022/10/18 10:07:46;;;;;;;14.93;6.30;;;;;;;17.59;47.77;101220.75;5085733;28;20326;-73
2022/10/18 10:10:24;;;;;;;15.63;5.80;;;;;;;17.96;46.46;101246.13;5085732;28;20321;-73
2022/10/18 10:13:11;;;;;;;15.75;6.20;;;;;;;17.85;46.79;101240.16;5084372;28;20051;-69
2022/10/18 10:15:37;;;;;;;11.90;6.00;;;;;;;17.89;46.35;101235.28;5085407;28;20044;-73
2022/10/18 10:18:06;;;;;;;12.23;5.55;;;;;;;17.94;45.77;101229.41;5084647;28;20025;-69
2022/10/18 10:20:43;;;;;;;11.07;5.40;;;;;;;17.71;47.64;101222.13;5085434;28;20037;-73
2022/10/18 10:23:25;;;;;;;14.18;5.90;;;;;;;17.99;46.85;101216.31;5085376;28;20199;-69
2022/10/18 10:25:57;;;;;;;21.50;6.75;;;;;;;17.78;48.37;101209.69;5085028;28;20067;-70
2022/10/18 10:28:28;;;;;;;22.27;7.18;;;;;;;17.64;47.07;101196.13;5085270;28;20217;-73
2022/10/18 10:30:53;;;;;;;12.90;6.43;;;;;;;17.77;47.47;101204.50;5085214;28;20097;-69
2022/10/18 10:33:37;;;;;;;10.05;5.13;;;;;;;17.96;46.04;101189.88;5085277;28;20032;-69
2022/10/18 10:36:19;;;;;;;18.05;6.65;;;;;;;17.91;46.76;101182.34;5085443;28;20037;-73
2022/10/18 10:38:44;;;;;;;11.50;5.40;;;;;;;18.03;44.65;101180.94;5078709;28;20048;-73
2022/10/18 10:41:21;;;;;;;9.20;4.97;;;;;;;18.20;44.06;101168.28;5084983;28;20027;-73
2022/10/18 10:43:48;;;;;;;9.55;5.38;;;;;;;17.92;44.23;101159.91;5085281;28;20059;-73
2022/10/18 10:46:17;;;;;;;10.32;4.78;;;;;;;17.84;43.66;101154.56;5084957;28;20032;-73
2022/10/18 10:48:52;;;;;;;10.10;4.70;;;;;;;17.97;43.00;101143.28;5085017;28;20112;-73
2022/10/18 10:51:30;;;;;;;15.10;5.47;;;;;;;17.91;43.88;101142.16;5083711;28;20028;-69
2022/10/18 10:54:00;;;;;;;10.23;4.78;;;;;;;18.16;42.39;101138.31;5085025;28;20256;-73
2022/10/18 10:56:29;;;;;;;12.35;5.38;;;;;;;17.98;42.31;101128.88;5085113;28;20028;-73
2022/10/18 10:59:00;;;;;;;9.07;5.00;;;;;;;18.06;42.56;101124.31;5083479;28;20322;-69
2022/10/18 11:01:28;;;;;;;8.98;4.25;;;;;;;18.21;42.69;101120.84;5084004;28;20381;-69
2022/10/18 11:03:57;;;;;;;10.27;4.57;;;;;;;18.23;41.72;101116.16;5084693;28;20040;-69
2022/10/18 11:06:36;;;;;;;7.88;4.00;;;;;;;18.43;39.86;101101.25;5083515;28;20051;-69
2022/10/18 11:09:08;;;;;;;11.77;3.92;;;;;;;18.31;40.79;101097.31;5076815;28;20048;-72
2022/10/18 11:11:39;;;;;;;16.05;4.47;;;;;;;18.12;39.92;101087.91;5066574;28;20044;-69
2022/10/18 11:14:28;;;;;;;11.73;4.18;;;;;;;18.44;38.78;101082.28;5072373;28;20028;-73
2022/10/18 11:17:06;;;;;;;6.13;3.70;;;;;;;18.18;37.61;101081.84;5066460;28;20028;-69
2022/10/18 11:19:37;;;;;;;6.32;2.90;;;;;;;18.13;38.28;101078.84;5068853;28;20089;-73
2022/10/18 11:22:08;;;;;;;12.15;3.65;;;;;;;18.14;37.81;101067.13;5065645;28;20143;-73
2022/10/18 11:24:34;;;;;;;4.72;3.20;;;;;;;18.18;36.25;101065.75;5075990;28;20309;-73
2022/10/18 11:27:23;;;;;;;9.80;3.10;;;;;;;18.15;37.20;101056.22;5066047;28;20036;-69
2022/10/18 11:30:02;;;;;;;7.82;3.63;;;;;;;18.21;37.93;101057.34;5075970;28;20319;-69